createdAt,value
2018-08-03T00:01:06.720Z,4.77
2018-08-03T00:03:34.975Z,5.33
2018-08-03T00:06:05.400Z,5.13
2018-08-03T00:08:39.429Z,5.07
2018-08-03T00:11:18.031Z,4.77
2018-08-03T00:13:55.213Z,5.30
2018-08-03T00:16:25.838Z,5.50
2018-08-03T00:18:59.316Z,5.30
2018-08-03T00:21:33.852Z,5.57
2018-08-03T00:24:07.192Z,5.80
2018-08-03T00:26:45.376Z,5.20
2018-08-03T00:29:29.452Z,6.00
2018-08-03T00:31:58.252Z,5.90
2018-08-03T00:34:30.857Z,6.03
2018-08-03T00:37:04.686Z,5.50
2018-08-03T00:39:37.907Z,5.40
2018-08-03T00:42:12.847Z,5.83
2018-08-03T00:44:41.172Z,5.47
2018-08-03T00:47:09.600Z,6.07
2018-08-03T00:49:47.596Z,5.70
2018-08-03T00:52:23.712Z,5.03
2018-08-03T00:55:00.430Z,5.80
2018-08-03T01:00:16.275Z,6.33
2018-08-03T01:02:48.762Z,5.90
2018-08-03T01:05:31.431Z,5.40
2018-08-03T01:08:12.965Z,5.73
2018-08-03T01:10:41.409Z,6.10
2018-08-03T01:13:10.009Z,6.40
2018-08-03T01:15:38.625Z,6.43
2018-08-03T01:18:07.068Z,6.53
2018-08-03T01:20:35.545Z,5.73
2018-08-03T01:23:03.744Z,6.10
2018-08-03T01:25:39.379Z,6.77
2018-08-03T01:28:07.598Z,5.43
2018-08-03T01:30:38.882Z,6.70
2018-08-03T01:33:13.478Z,6.33
2018-08-03T01:35:46.978Z,6.10
2018-08-03T01:38:17.672Z,6.27
2018-08-03T01:40:46.211Z,5.93
2018-08-03T01:43:14.526Z,6.07
2018-08-03T01:45:49.093Z,6.60
2018-08-03T01:48:20.210Z,6.80
2018-08-03T01:50:55.903Z,6.20
2018-08-03T01:53:30.075Z,6.20
2018-08-03T01:56:06.133Z,6.50
2018-08-03T01:58:34.967Z,6.37
2018-08-03T02:01:15.174Z,5.93
2018-08-03T02:03:46.612Z,7.73
2018-08-03T02:06:17.037Z,6.33
2018-08-03T02:08:48.453Z,6.63
2018-08-03T02:11:16.937Z,5.97
2018-08-03T02:13:45.525Z,6.30
2018-08-03T02:16:16.260Z,6.50
2018-08-03T02:18:48.010Z,7.43
2018-08-03T02:21:30.877Z,7.10
2018-08-03T02:24:01.556Z,7.57
2018-08-03T02:26:33.907Z,6.87
2018-08-03T02:29:06.218Z,6.57
2018-08-03T02:31:36.980Z,6.93
2018-08-03T02:34:11.561Z,7.80
2018-08-03T02:36:46.967Z,8.00
2018-08-03T02:41:55.225Z,7.10
2018-08-03T02:44:23.775Z,7.50
2018-08-03T02:46:52.233Z,7.43
2018-08-03T02:49:20.714Z,7.60
2018-08-03T02:51:49.291Z,8.53
2018-08-03T02:54:20.456Z,7.50
2018-08-03T02:56:55.241Z,7.20
2018-08-03T02:59:26.329Z,7.13
2018-08-03T03:01:57.562Z,8.13
2018-08-03T03:04:31.268Z,7.27
2018-08-03T03:07:02.450Z,7.33
2018-08-03T03:09:35.865Z,8.07
2018-08-03T03:12:09.934Z,8.03
2018-08-03T03:14:38.502Z,8.33
2018-08-03T03:17:06.751Z,7.10
2018-08-03T03:19:40.330Z,7.33
2018-08-03T03:22:08.841Z,8.07
2018-08-03T03:24:37.273Z,8.97
2018-08-03T03:27:05.620Z,8.10
2018-08-03T03:29:40.484Z,8.73
2018-08-03T03:32:09.037Z,8.67
2018-08-03T03:34:40.929Z,8.73
2018-08-03T03:37:12.430Z,6.97
2018-08-03T03:39:51.448Z,7.70
2018-08-03T03:42:30.095Z,9.67
2018-08-03T03:45:03.825Z,10.30
2018-08-03T03:47:36.451Z,8.77
2018-08-03T03:50:10.102Z,10.33
2018-08-03T03:52:39.025Z,12.17
2018-08-03T03:55:10.311Z,10.73
2018-08-03T03:57:46.486Z,10.83
2018-08-03T04:00:17.659Z,10.67
2018-08-03T04:02:46.331Z,11.13
2018-08-03T04:05:18.274Z,10.10
2018-08-03T04:10:27.013Z,10.80
2018-08-03T04:13:00.484Z,12.57
2018-08-03T04:15:40.580Z,13.00
2018-08-03T04:18:14.738Z,13.67
2018-08-03T04:20:43.133Z,14.03
2018-08-03T04:23:23.094Z,12.20
2018-08-03T04:25:59.369Z,14.77
2018-08-03T04:28:28.520Z,15.77
2018-08-03T04:31:00.909Z,14.57
2018-08-03T04:33:34.418Z,15.70
2018-08-03T04:36:07.729Z,14.10
2018-08-03T04:38:42.210Z,13.13
2018-08-03T04:41:18.696Z,14.23
2018-08-03T04:43:53.325Z,15.30
2018-08-03T04:46:21.994Z,15.27
2018-08-03T04:48:51.087Z,12.43
2018-08-03T04:51:26.561Z,14.77
2018-08-03T04:53:59.643Z,14.23
2018-08-03T04:56:41.655Z,13.70
2018-08-03T04:59:10.864Z,15.03
2018-08-03T05:01:48.456Z,13.97
2018-08-03T05:04:27.160Z,12.70
2018-08-03T05:06:57.478Z,13.97
2018-08-03T05:09:25.776Z,15.40
2018-08-03T05:11:57.671Z,15.83
2018-08-03T05:14:28.245Z,13.93
2018-08-03T05:17:01.227Z,14.77
2018-08-03T05:19:29.492Z,15.03
2018-08-03T05:22:04.148Z,14.90
2018-08-03T05:24:32.396Z,14.10
2018-08-03T05:27:07.766Z,14.40
2018-08-03T05:29:42.348Z,13.97
2018-08-03T05:32:11.430Z,13.77
2018-08-03T05:34:47.032Z,13.80
2018-08-03T05:37:18.982Z,13.57
2018-08-03T05:39:47.358Z,13.00
2018-08-03T05:42:15.621Z,13.23
2018-08-03T05:44:47.906Z,12.73
2018-08-03T05:47:30.273Z,12.80
2018-08-03T05:50:07.438Z,12.80
2018-08-03T05:52:37.886Z,12.20
2018-08-03T05:55:07.023Z,11.93
2018-08-03T05:57:43.609Z,12.87
2018-08-03T06:00:11.946Z,12.00
2018-08-03T06:02:45.759Z,12.53
2018-08-03T06:05:25.824Z,11.70
2018-08-03T06:07:54.224Z,12.27
2018-08-03T06:10:23.516Z,11.83
2018-08-03T06:12:55.980Z,10.83
2018-08-03T06:15:31.146Z,11.73
2018-08-03T06:18:02.681Z,11.03
2018-08-03T06:20:46.478Z,10.50
2018-08-03T06:23:15.151Z,10.57
2018-08-03T06:25:43.360Z,10.60
2018-08-03T06:28:20.168Z,10.60
2018-08-03T06:30:48.400Z,10.93
2018-08-03T06:33:19.487Z,10.17
2018-08-03T06:35:53.997Z,11.13
2018-08-03T06:38:34.289Z,10.57
2018-08-03T06:41:12.577Z,10.47
2018-08-03T06:43:43.882Z,9.63
2018-08-03T06:46:12.084Z,9.20
2018-08-03T06:48:44.370Z,9.73
2018-08-03T06:51:17.561Z,9.57
2018-08-03T06:53:56.946Z,9.73
2018-08-03T06:56:29.476Z,8.53
2018-08-03T06:59:00.789Z,8.87
2018-08-03T07:01:37.407Z,9.30
2018-08-03T07:04:11.043Z,8.57
2018-08-03T07:06:46.024Z,8.47
2018-08-03T07:09:24.670Z,7.90
2018-08-03T07:11:58.289Z,7.83
2018-08-03T07:14:32.959Z,8.27
2018-08-03T07:17:06.422Z,6.13
2018-08-03T07:19:35.266Z,6.90
2018-08-03T07:22:16.207Z,7.60
2018-08-03T07:24:48.594Z,7.27
2018-08-03T07:27:21.394Z,6.67
2018-08-03T07:29:49.656Z,6.77
2018-08-03T07:32:26.307Z,7.03
2018-08-03T07:35:02.645Z,7.10
2018-08-03T07:37:30.879Z,6.97
2018-08-03T07:40:03.977Z,6.03
2018-08-03T07:42:44.314Z,6.27
2018-08-03T07:45:20.531Z,5.97
2018-08-03T07:47:49.019Z,5.80
2018-08-03T07:50:31.385Z,5.30
2018-08-03T07:53:04.956Z,5.80
2018-08-03T07:55:37.713Z,4.73
2018-08-03T07:58:10.807Z,5.20
2018-08-03T08:00:39.192Z,4.77
2018-08-03T08:03:07.506Z,5.07
2018-08-03T08:05:36.490Z,5.27
2018-08-03T08:08:09.777Z,4.53
2018-08-03T08:10:38.324Z,4.43
2018-08-03T08:16:00.353Z,4.40
2018-08-03T08:18:35.866Z,4.33
2018-08-03T08:21:13.640Z,4.53
2018-08-03T08:23:56.037Z,4.73
2018-08-03T08:26:24.925Z,4.77
2018-08-03T08:29:00.898Z,4.40
2018-08-03T08:31:32.249Z,4.57
2018-08-03T08:34:04.826Z,4.80
2018-08-03T08:36:37.893Z,4.83
2018-08-03T08:39:12.418Z,4.28
2018-08-03T08:41:46.975Z,4.40
2018-08-03T08:44:16.022Z,5.03
2018-08-03T08:46:57.657Z,4.25
2018-08-03T08:49:33.307Z,4.70
2018-08-03T08:52:09.636Z,4.60
2018-08-03T08:54:38.095Z,4.67
2018-08-03T08:57:10.752Z,4.00
2018-08-03T08:59:39.616Z,4.05
2018-08-03T09:02:09.812Z,3.90
2018-08-03T09:04:38.067Z,4.12
2018-08-03T09:07:08.801Z,3.90
2018-08-03T09:09:37.087Z,4.00
2018-08-03T09:12:11.923Z,4.08
2018-08-03T09:14:47.068Z,3.62
2018-08-03T09:17:15.797Z,3.60
2018-08-03T09:19:44.018Z,3.70
2018-08-03T09:22:13.609Z,3.72
2018-08-03T09:24:46.564Z,4.00
2018-08-03T09:27:17.761Z,3.70
2018-08-03T09:29:56.719Z,3.02
2018-08-03T09:35:00.915Z,3.75
2018-08-03T09:37:29.154Z,3.20
2018-08-03T09:40:04.737Z,3.33
2018-08-03T09:42:33.010Z,3.17
2018-08-03T09:45:06.066Z,3.15
2018-08-03T09:47:42.141Z,2.80
2018-08-03T09:50:10.462Z,2.90
2018-08-03T09:52:47.158Z,2.83
2018-08-03T09:55:23.839Z,2.83
2018-08-03T09:58:03.953Z,3.40
2018-08-03T10:00:37.693Z,2.90
2018-08-03T10:03:08.168Z,3.30
2018-08-03T10:05:39.372Z,3.10
2018-08-03T10:08:07.586Z,2.42
2018-08-03T10:10:42.535Z,2.47
2018-08-03T10:13:16.444Z,2.60
2018-08-03T10:15:51.172Z,3.08
2018-08-03T10:18:20.276Z,2.58
2018-08-03T10:20:56.417Z,2.67
2018-08-03T10:23:37.073Z,2.85
2018-08-03T10:26:10.357Z,2.47
2018-08-03T10:28:42.437Z,2.70
2018-08-03T10:31:10.697Z,2.70
2018-08-03T10:33:44.719Z,2.62
2018-08-03T10:36:26.958Z,2.40
2018-08-03T10:38:59.309Z,2.60
2018-08-03T10:41:27.664Z,2.62
2018-08-03T10:44:01.409Z,2.58
2018-08-03T10:46:31.720Z,3.10
2018-08-03T10:49:04.807Z,2.50
2018-08-03T10:51:38.183Z,2.70
2018-08-03T10:54:09.559Z,2.50
2018-08-03T10:56:47.542Z,2.45
2018-08-03T10:59:29.257Z,2.92
2018-08-03T11:02:01.785Z,3.25
2018-08-03T11:04:38.035Z,2.62
2018-08-03T11:07:18.435Z,2.42
2018-08-03T11:09:52.239Z,2.70
2018-08-03T11:12:22.875Z,2.55
2018-08-03T11:17:30.661Z,2.50
2018-08-03T11:20:02.176Z,2.52
2018-08-03T11:22:30.528Z,2.50
2018-08-03T11:25:05.330Z,2.62
2018-08-03T11:27:48.677Z,2.75
2018-08-03T11:30:24.732Z,2.58
2018-08-03T11:32:56.179Z,2.42
2018-08-03T11:35:31.234Z,2.60
2018-08-03T11:37:59.461Z,3.08
2018-08-03T11:40:28.076Z,2.50
2018-08-03T11:43:00.439Z,2.50
2018-08-03T11:45:28.686Z,2.58
2018-08-03T11:47:57.685Z,3.30
2018-08-03T11:50:32.295Z,3.00
2018-08-03T11:53:12.599Z,3.02
2018-08-03T11:55:49.202Z,2.75
2018-08-03T11:58:25.132Z,2.40
2018-08-03T12:00:57.482Z,2.90
2018-08-03T12:03:25.624Z,2.42
2018-08-03T12:06:00.714Z,2.75
2018-08-03T12:08:31.227Z,2.52
2018-08-03T12:10:59.713Z,2.80
2018-08-03T12:13:31.069Z,2.55
2018-08-03T12:15:59.523Z,3.05
2018-08-03T12:18:27.714Z,2.60
2018-08-03T12:20:58.747Z,2.85
2018-08-03T12:23:30.028Z,2.62
2018-08-03T12:25:58.362Z,2.52
2018-08-03T12:28:30.378Z,2.45
2018-08-03T12:31:03.696Z,2.47
2018-08-03T12:33:31.911Z,2.22
2018-08-03T12:36:02.337Z,2.80
2018-08-03T12:38:31.136Z,2.60
2018-08-03T12:41:05.135Z,2.20
2018-08-03T12:43:33.449Z,2.47
2018-08-03T12:46:07.945Z,2.60
2018-08-03T12:48:40.932Z,2.60
2018-08-03T12:51:12.337Z,2.45
2018-08-03T12:53:40.627Z,2.55
2018-08-03T12:56:13.745Z,2.75
2018-08-03T12:58:47.237Z,2.70
2018-08-03T13:01:16.107Z,2.75
2018-08-03T13:03:56.355Z,2.27
2018-08-03T13:06:24.568Z,2.62
2018-08-03T13:09:00.094Z,2.52
2018-08-03T13:11:30.737Z,2.75
2018-08-03T13:13:59.163Z,2.80
2018-08-03T13:16:36.414Z,3.27
2018-08-03T13:19:11.097Z,2.55
2018-08-03T13:21:47.475Z,2.50
2018-08-03T13:24:15.785Z,2.80
2018-08-03T13:26:48.716Z,2.87
2018-08-03T13:29:26.141Z,2.45
2018-08-03T13:31:54.321Z,2.58
2018-08-03T13:34:22.597Z,2.80
2018-08-03T13:36:57.097Z,2.70
2018-08-03T13:39:31.811Z,2.62
2018-08-03T13:41:59.984Z,2.40
2018-08-03T13:44:34.762Z,2.70
2018-08-03T13:47:03.061Z,3.02
2018-08-03T13:49:35.504Z,2.50
2018-08-03T13:52:04.001Z,2.67
2018-08-03T13:54:36.585Z,3.05
2018-08-03T13:57:07.689Z,2.98
2018-08-03T13:59:40.241Z,2.70
2018-08-03T14:02:26.255Z,2.65
2018-08-03T14:05:04.939Z,2.67
2018-08-03T14:07:41.045Z,2.87
2018-08-03T14:10:12.376Z,2.67
2018-08-03T14:12:40.875Z,2.72
2018-08-03T14:15:13.335Z,2.40
2018-08-03T14:17:43.676Z,2.55
2018-08-03T14:20:11.921Z,2.65
2018-08-03T14:22:48.097Z,3.08
2018-08-03T14:25:19.122Z,2.80
2018-08-03T14:27:47.343Z,2.50
2018-08-03T14:30:17.825Z,2.80
2018-08-03T14:32:46.232Z,2.80
2018-08-03T14:35:26.059Z,2.70
2018-08-03T14:37:54.510Z,2.62
2018-08-03T14:40:22.742Z,2.75
2018-08-03T14:42:56.672Z,2.80
2018-08-03T14:45:27.989Z,2.65
2018-08-03T14:47:56.363Z,3.00
2018-08-03T14:50:28.126Z,2.60
2018-08-03T14:53:06.605Z,2.65
2018-08-03T14:55:48.833Z,2.30
2018-08-03T14:58:19.255Z,2.72
2018-08-03T15:00:47.602Z,2.75
2018-08-03T15:03:26.411Z,3.00
2018-08-03T15:05:57.818Z,2.83
2018-08-03T15:08:31.427Z,3.10
2018-08-03T15:11:02.437Z,2.80
2018-08-03T15:13:30.618Z,2.30
2018-08-03T15:16:04.200Z,3.10
2018-08-03T15:18:32.390Z,2.70
2018-08-03T15:21:08.642Z,2.62
2018-08-03T15:23:50.909Z,2.90
2018-08-03T15:26:21.509Z,2.80
2018-08-03T15:28:56.330Z,2.62
2018-08-03T15:31:24.837Z,2.75
2018-08-03T15:33:59.390Z,2.80
2018-08-03T15:36:28.332Z,2.67
2018-08-03T15:38:59.758Z,2.80
2018-08-03T15:41:39.511Z,3.08
2018-08-03T15:44:16.232Z,2.95
2018-08-03T15:46:44.477Z,2.58
2018-08-03T15:49:14.174Z,2.42
2018-08-03T15:51:42.664Z,2.72
2018-08-03T15:54:10.916Z,2.60
2018-08-03T15:56:46.430Z,2.80
2018-08-03T15:59:18.840Z,2.85
2018-08-03T16:01:50.702Z,3.17
2018-08-03T16:04:19.144Z,2.70
2018-08-03T16:06:47.506Z,2.90
2018-08-03T16:09:29.894Z,2.50
2018-08-03T16:11:58.179Z,2.77
2018-08-03T16:14:32.824Z,2.90
2018-08-03T16:17:01.070Z,2.80
2018-08-03T16:19:35.542Z,2.72
2018-08-03T16:22:10.716Z,3.08
2018-08-03T16:24:44.140Z,3.20
2018-08-03T16:27:21.289Z,2.95
2018-08-03T16:29:58.364Z,2.80
2018-08-03T16:32:30.864Z,2.60
2018-08-03T16:34:59.247Z,2.85
2018-08-03T16:37:30.344Z,2.80
2018-08-03T16:40:04.681Z,2.90
2018-08-03T16:42:45.552Z,2.65
2018-08-03T16:45:20.243Z,2.90
2018-08-03T16:47:58.494Z,2.73
2018-08-03T16:50:31.710Z,3.20
2018-08-03T16:53:10.451Z,3.00
2018-08-03T16:55:38.789Z,2.67
2018-08-03T16:58:12.236Z,3.03
2018-08-03T17:00:43.985Z,2.77
2018-08-03T17:03:12.708Z,2.80
2018-08-03T17:05:48.726Z,3.00
2018-08-03T17:08:26.106Z,2.60
2018-08-03T17:10:54.368Z,2.70
2018-08-03T17:13:26.661Z,2.77
2018-08-03T17:15:57.748Z,2.60
2018-08-03T17:18:28.574Z,2.73
2018-08-03T17:21:00.928Z,2.80
2018-08-03T17:23:33.401Z,2.70
2018-08-03T17:26:15.455Z,2.83
2018-08-03T17:28:44.005Z,3.00
2018-08-03T17:31:12.397Z,2.93
2018-08-03T17:36:19.425Z,2.87
2018-08-03T17:39:01.969Z,2.73
2018-08-03T17:41:40.380Z,2.53
2018-08-03T17:44:21.499Z,2.97
2018-08-03T17:46:53.802Z,3.40
2018-08-03T17:49:23.060Z,2.80
2018-08-03T17:51:58.277Z,3.17
2018-08-03T17:54:28.561Z,2.70
2018-08-03T17:57:05.497Z,2.77
2018-08-03T17:59:38.725Z,4.30
2018-08-03T18:02:11.148Z,4.30
2018-08-03T18:04:44.485Z,4.53
2018-08-03T18:07:14.841Z,4.80
2018-08-03T18:09:47.491Z,4.80
2018-08-03T18:12:24.497Z,4.53
2018-08-03T18:14:53.336Z,4.43
2018-08-03T18:17:28.037Z,4.30
2018-08-03T18:20:02.706Z,4.63
2018-08-03T18:22:30.994Z,4.37
2018-08-03T18:25:02.181Z,4.17
2018-08-03T18:27:35.591Z,4.00
2018-08-03T18:30:18.638Z,4.17
2018-08-03T18:32:47.196Z,4.27
2018-08-03T18:35:15.614Z,4.23
2018-08-03T18:37:50.750Z,4.17
2018-08-03T18:40:19.258Z,4.30
2018-08-03T18:42:56.288Z,4.10
2018-08-03T18:45:27.752Z,4.00
2018-08-03T18:48:08.420Z,4.27
2018-08-03T18:50:41.904Z,3.87
2018-08-03T18:53:16.631Z,4.60
2018-08-03T18:55:53.482Z,4.53
2018-08-03T18:58:28.065Z,4.10
2018-08-03T19:01:01.302Z,3.77
2018-08-03T19:03:29.617Z,5.13
2018-08-03T19:05:57.974Z,4.20
2018-08-03T19:08:26.305Z,4.47
2018-08-03T19:10:59.234Z,4.13
2018-08-03T19:13:29.564Z,4.23
2018-08-03T19:15:57.859Z,4.13
2018-08-03T19:18:29.381Z,4.20
2018-08-03T19:20:57.590Z,4.23
2018-08-03T19:23:28.735Z,4.70
2018-08-03T19:26:02.462Z,4.10
2018-08-03T19:28:37.721Z,4.10
2018-08-03T19:31:11.504Z,5.00
2018-08-03T19:33:39.831Z,4.67
2018-08-03T19:36:10.974Z,4.50
2018-08-03T19:38:53.079Z,4.40
2018-08-03T19:41:21.849Z,4.03
2018-08-03T19:44:01.194Z,4.17
2018-08-03T19:46:32.083Z,4.53
2018-08-03T19:49:07.895Z,3.90
2018-08-03T19:51:36.136Z,3.80
2018-08-03T19:54:08.513Z,4.07
2018-08-03T19:56:44.026Z,3.73
2018-08-03T19:59:12.384Z,3.60
2018-08-03T20:01:46.925Z,3.67
2018-08-03T20:04:24.517Z,3.47
2018-08-03T20:06:52.898Z,3.27
2018-08-03T20:09:24.010Z,3.50
2018-08-03T20:11:58.918Z,4.13
2018-08-03T20:14:27.135Z,3.90
2018-08-03T20:17:00.707Z,3.00
2018-08-03T20:19:31.848Z,3.60
2018-08-03T20:22:14.928Z,3.50
2018-08-03T20:24:45.426Z,3.27
2018-08-03T20:27:18.679Z,3.30
2018-08-03T20:29:51.893Z,3.03
2018-08-03T20:32:24.464Z,3.13
2018-08-03T20:34:52.966Z,3.20
2018-08-03T20:37:25.258Z,3.00
2018-08-03T20:40:00.275Z,3.03
2018-08-03T20:42:36.924Z,2.93
2018-08-03T20:45:07.675Z,3.07
2018-08-03T20:47:48.207Z,3.47
2018-08-03T20:50:17.346Z,3.30
2018-08-03T20:52:52.798Z,2.97
2018-08-03T20:55:29.746Z,3.30
2018-08-03T20:57:58.085Z,3.10
2018-08-03T21:00:26.277Z,2.93
2018-08-03T21:02:59.680Z,3.20
2018-08-03T21:05:37.354Z,3.00
2018-08-03T21:08:06.185Z,2.73
2018-08-03T21:10:36.694Z,3.20
2018-08-03T21:13:07.120Z,2.83
2018-08-03T21:15:41.791Z,2.80
2018-08-03T21:18:12.912Z,2.90
2018-08-03T21:20:41.247Z,3.00
2018-08-03T21:23:12.809Z,2.73
2018-08-03T21:25:41.216Z,2.80
2018-08-03T21:28:09.442Z,2.97
2018-08-03T21:30:49.245Z,2.77
2018-08-03T21:33:17.570Z,3.27
2018-08-03T21:35:55.596Z,2.60
2018-08-03T21:38:30.848Z,2.87
2018-08-03T21:41:10.718Z,3.13
2018-08-03T21:43:39.043Z,3.20
2018-08-03T21:46:13.923Z,2.70
2018-08-03T21:48:46.076Z,3.43
2018-08-03T21:51:19.451Z,3.03
2018-08-03T21:53:57.198Z,3.00
2018-08-03T21:56:29.896Z,2.77
2018-08-03T21:58:58.526Z,2.80
2018-08-03T22:01:32.942Z,3.30
2018-08-03T22:04:05.683Z,3.20
2018-08-03T22:06:40.356Z,3.10
2018-08-03T22:09:09.377Z,2.90
2018-08-03T22:11:40.919Z,2.77
2018-08-03T22:14:22.471Z,2.83
2018-08-03T22:16:57.240Z,3.03
2018-08-03T22:19:25.714Z,3.07
2018-08-03T22:22:04.953Z,2.50
2018-08-03T22:24:36.137Z,2.90
2018-08-03T22:27:16.080Z,2.93
2018-08-03T22:29:44.362Z,3.10
2018-08-03T22:32:12.681Z,2.80
2018-08-03T22:34:44.049Z,2.70
2018-08-03T22:37:21.100Z,2.87
2018-08-03T22:39:54.859Z,2.80
2018-08-03T22:42:32.030Z,2.67
2018-08-03T22:45:03.330Z,2.70
2018-08-03T22:47:31.663Z,2.53
2018-08-03T22:50:00.090Z,2.73
2018-08-03T22:52:33.469Z,2.20
2018-08-03T22:55:06.194Z,2.50
2018-08-03T22:57:34.445Z,2.13
2018-08-03T23:00:06.435Z,2.50
2018-08-03T23:02:38.027Z,2.67
2018-08-03T23:05:11.436Z,2.50
2018-08-03T23:07:40.139Z,2.50
2018-08-03T23:10:14.818Z,2.23
2018-08-03T23:12:45.825Z,2.30
2018-08-03T23:15:24.145Z,2.43
2018-08-03T23:17:58.360Z,2.57
2018-08-03T23:20:37.159Z,2.40
2018-08-03T23:23:12.133Z,2.50
2018-08-03T23:25:44.416Z,2.23
2018-08-03T23:28:20.034Z,2.50
2018-08-03T23:30:48.372Z,2.20
2018-08-03T23:33:21.109Z,2.20
2018-08-03T23:35:54.062Z,2.27
2018-08-03T23:38:25.287Z,2.63
2018-08-03T23:41:00.039Z,2.30
2018-08-03T23:43:33.142Z,2.10
2018-08-03T23:46:11.757Z,2.20
2018-08-03T23:48:42.855Z,1.80
2018-08-03T23:51:11.288Z,1.87
2018-08-03T23:53:49.787Z,2.20
2018-08-03T23:56:24.494Z,2.27
2018-08-03T23:58:59.323Z,2.30
